createdAt,value
2023-03-06T00:00:55.327Z,83.87
2023-03-06T00:03:24.571Z,83.05
2023-03-06T00:05:55.733Z,83.40
2023-03-06T00:21:00.051Z,84.11
2023-03-06T00:23:28.525Z,84.11
2023-03-06T00:25:56.344Z,86.83
2023-03-06T00:28:24.589Z,87.43
2023-03-06T00:30:53.076Z,87.62
2023-03-06T00:33:20.910Z,88.61
2023-03-06T00:35:48.866Z,89.12
2023-03-06T00:38:17.560Z,89.29
2023-03-06T00:56:00.395Z,85.38
2023-03-06T00:58:29.077Z,85.38
2023-03-06T01:00:57.498Z,87.64
2023-03-06T01:03:25.464Z,87.77
2023-03-06T01:05:54.026Z,87.43
2023-03-06T01:08:31.553Z,87.09
2023-03-06T01:10:59.931Z,87.48
2023-03-06T01:33:57.279Z,84.87
2023-03-06T01:36:25.806Z,84.87
2023-03-06T01:38:53.634Z,87.08
2023-03-06T01:41:21.691Z,88.35
2023-03-06T01:43:50.153Z,89.64
2023-03-06T01:46:33.442Z,90.76
2023-03-06T01:49:34.915Z,90.19
2023-03-06T02:05:43.834Z,89.70
2023-03-06T02:08:15.546Z,89.70
2023-03-06T02:10:55.907Z,91.05
2023-03-06T02:13:24.347Z,92.59
2023-03-06T02:15:52.979Z,92.84
2023-03-06T02:18:21.203Z,91.97
2023-03-06T02:20:54.327Z,92.48
2023-03-06T02:41:51.056Z,91.27
2023-03-06T02:44:20.848Z,91.27
2023-03-06T02:46:48.817Z,93.10
2023-03-06T02:49:16.693Z,92.97
2023-03-06T02:51:44.940Z,92.20
2023-03-06T02:54:13.014Z,92.47
2023-03-06T02:56:41.984Z,92.13
2023-03-06T02:59:10.454Z,92.37
2023-03-06T03:19:05.399Z,91.28
2023-03-06T03:21:34.427Z,91.28
2023-03-06T03:24:02.596Z,92.18
2023-03-06T03:26:30.399Z,91.87
2023-03-06T03:28:59.383Z,91.48
2023-03-06T03:31:27.842Z,91.13
2023-03-06T03:33:55.945Z,91.65
2023-03-06T03:56:51.746Z,87.39
2023-03-06T03:59:21.260Z,87.39
2023-03-06T04:01:49.791Z,89.18
2023-03-06T04:04:18.069Z,89.22
2023-03-06T04:06:46.039Z,88.62
2023-03-06T04:09:14.426Z,87.85
2023-03-06T04:11:43.546Z,87.17
2023-03-06T04:14:11.909Z,87.65
2023-03-06T04:34:40.100Z,86.70
2023-03-06T04:37:21.033Z,86.70
2023-03-06T04:39:49.398Z,88.68
2023-03-06T04:42:17.966Z,88.19
2023-03-06T04:44:45.787Z,88.14
2023-03-06T04:47:13.795Z,88.08
2023-03-06T04:49:42.002Z,88.30
2023-03-06T04:52:10.142Z,87.96
2023-03-06T05:12:28.911Z,85.77
2023-03-06T05:14:58.582Z,85.77
2023-03-06T05:17:26.419Z,88.65
2023-03-06T05:19:54.746Z,88.91
2023-03-06T05:22:22.866Z,88.39
2023-03-06T05:24:50.721Z,88.29
2023-03-06T05:27:18.707Z,88.85
2023-03-06T05:29:47.383Z,88.73
2023-03-06T05:47:38.703Z,85.01
2023-03-06T05:50:08.490Z,85.01
2023-03-06T05:52:37.114Z,86.83
2023-03-06T05:55:05.197Z,86.15
2023-03-06T05:57:33.398Z,87.22
2023-03-06T06:00:01.300Z,85.44
2023-03-06T06:02:31.452Z,85.12
2023-03-06T06:05:02.494Z,85.08
2023-03-06T06:07:30.429Z,84.80
2023-03-06T06:09:58.296Z,86.08
2023-03-06T06:12:27.656Z,84.49
2023-03-06T06:47:41.497Z,81.18
2023-03-06T06:50:14.017Z,81.18
2023-03-06T06:52:42.388Z,82.96
2023-03-06T06:55:12.368Z,81.77
2023-03-06T06:57:42.272Z,81.21
2023-03-06T07:00:14.384Z,80.05
2023-03-06T07:02:42.403Z,79.06
2023-03-06T07:05:10.835Z,78.49
2023-03-06T07:07:39.193Z,78.07
2023-03-06T07:10:15.262Z,77.41
2023-03-06T07:12:44.066Z,77.15
2023-03-06T07:15:18.248Z,75.11
2023-03-06T07:17:49.887Z,75.90
2023-03-06T07:20:19.265Z,75.05
2023-03-06T07:22:51.513Z,75.38
2023-03-06T07:25:20.533Z,75.47
2023-03-06T07:27:54.061Z,76.46
2023-03-06T07:32:53.390Z,77.37
2023-03-06T07:38:05.330Z,76.36
2023-03-06T08:16:22.677Z,71.66
2023-03-06T08:18:52.026Z,70.16
2023-03-06T08:21:23.947Z,69.75
2023-03-06T08:23:52.886Z,70.51
2023-03-06T08:26:24.575Z,68.32
2023-03-06T08:28:54.067Z,66.19
2023-03-06T08:31:29.599Z,65.54
2023-03-06T08:34:07.349Z,65.25
2023-03-06T08:36:35.500Z,64.74
2023-03-06T08:39:05.219Z,63.28
2023-03-06T08:41:33.835Z,63.61
2023-03-06T08:44:01.875Z,64.12
2023-03-06T08:46:30.972Z,65.82
2023-03-06T08:48:59.343Z,64.02
2023-03-06T08:51:29.038Z,62.26
2023-03-06T08:53:58.713Z,61.65
2023-03-06T08:56:33.465Z,61.51
2023-03-06T09:24:05.795Z,55.71
2023-03-06T09:26:49.866Z,55.71
2023-03-06T09:29:19.103Z,57.18
2023-03-06T09:31:47.483Z,57.76
2023-03-06T09:34:15.653Z,57.58
2023-03-06T09:36:56.116Z,56.62
2023-03-06T09:39:26.559Z,57.39
2023-03-06T09:41:57.431Z,57.91
2023-03-06T09:44:31.499Z,59.90
2023-03-06T09:47:44.781Z,57.80
2023-03-06T09:50:32.846Z,58.17
2023-03-06T09:53:16.630Z,59.50
2023-03-06T10:01:35.864Z,59.77
2023-03-06T10:13:17.903Z,57.35
2023-03-06T10:15:50.923Z,57.37
2023-03-06T10:18:19.299Z,58.73
2023-03-06T10:21:25.624Z,57.96
2023-03-06T10:23:58.161Z,57.79
2023-03-06T10:26:34.124Z,57.42
2023-03-06T10:29:47.544Z,58.29
2023-03-06T10:32:34.275Z,58.64
2023-03-06T10:35:18.119Z,57.48
2023-03-06T10:37:47.448Z,58.17
2023-03-06T10:40:28.568Z,57.66
2023-03-06T10:43:10.862Z,57.01
2023-03-06T10:45:51.581Z,56.51
2023-03-06T10:48:40.991Z,55.90
2023-03-06T10:54:14.599Z,54.78
2023-03-06T10:56:44.448Z,54.42
2023-03-06T11:28:34.746Z,54.67
2023-03-06T11:31:12.787Z,54.67
2023-03-06T11:34:12.171Z,54.94
2023-03-06T11:37:08.297Z,56.33
2023-03-06T11:39:51.342Z,56.05
2023-03-06T11:42:30.497Z,56.48
2023-03-06T11:45:29.543Z,57.21
2023-03-06T11:48:23.280Z,57.08
2023-03-06T11:53:55.344Z,57.93
2023-03-06T11:56:47.891Z,59.07
2023-03-06T11:59:40.800Z,58.36
2023-03-06T12:05:39.956Z,58.49
2023-03-06T12:17:46.667Z,58.80
2023-03-06T12:20:48.475Z,59.63
2023-03-06T12:23:50.060Z,60.92
2023-03-06T12:26:45.617Z,61.12
2023-03-06T12:29:52.966Z,61.67
2023-03-06T12:32:59.290Z,62.01
2023-03-06T12:36:08.146Z,61.52
2023-03-06T12:39:23.322Z,61.61
2023-03-06T12:42:38.729Z,60.24
2023-03-06T12:45:37.155Z,60.42
2023-03-06T12:48:28.212Z,60.79
2023-03-06T12:50:57.376Z,61.13
2023-03-06T12:53:29.733Z,60.78
2023-03-06T12:59:02.813Z,60.01
2023-03-06T13:18:24.773Z,61.08
2023-03-06T13:20:57.088Z,61.86
2023-03-06T13:23:36.007Z,62.64
2023-03-06T13:26:11.694Z,62.57
2023-03-06T13:28:49.298Z,62.69
2023-03-06T13:31:29.337Z,62.70
2023-03-06T13:34:06.607Z,63.65
2023-03-06T13:36:39.599Z,64.33
2023-03-06T13:39:09.670Z,64.39
2023-03-06T13:41:42.499Z,65.39
2023-03-06T13:44:24.719Z,66.48
2023-03-06T13:47:01.788Z,67.27
2023-03-06T13:49:36.491Z,67.79
2023-03-06T13:52:40.326Z,68.42
2023-03-06T13:55:25.781Z,68.31
2023-03-06T14:04:53.616Z,66.65
2023-03-06T14:07:35.920Z,66.65
2023-03-06T14:10:11.254Z,69.76
2023-03-06T14:12:51.348Z,69.49
2023-03-06T14:15:29.278Z,68.84
2023-03-06T14:18:15.925Z,69.31
2023-03-06T14:20:53.776Z,68.98
2023-03-06T14:23:21.833Z,69.81
2023-03-06T14:25:56.920Z,69.79
2023-03-06T14:28:28.517Z,70.21
2023-03-06T14:30:58.471Z,70.01
2023-03-06T14:36:41.960Z,70.10
2023-03-06T14:39:20.247Z,70.80
2023-03-06T14:44:27.740Z,71.64
2023-03-06T14:46:57.981Z,71.78
2023-03-06T14:49:26.965Z,70.74
2023-03-06T14:52:00.659Z,70.77
2023-03-06T14:54:37.611Z,71.05
2023-03-06T14:57:13.300Z,71.59
2023-03-06T15:00:03.561Z,71.91
2023-03-06T15:02:33.558Z,73.35
2023-03-06T15:08:16.140Z,77.28
2023-03-06T15:10:58.608Z,77.43
2023-03-06T15:29:47.584Z,78.76
2023-03-06T15:32:42.483Z,77.98
2023-03-06T15:35:30.446Z,78.16
2023-03-06T15:37:59.895Z,80.39
2023-03-06T15:40:31.002Z,79.01
2023-03-06T15:42:59.462Z,79.20
2023-03-06T15:45:29.572Z,80.28
2023-03-06T15:47:57.667Z,80.96
2023-03-06T15:50:28.883Z,80.39
2023-03-06T15:55:26.367Z,80.66
2023-03-06T15:58:01.251Z,81.59
2023-03-06T16:15:49.517Z,85.45
2023-03-06T16:18:19.128Z,85.45
2023-03-06T16:20:47.241Z,87.56
2023-03-06T16:23:16.496Z,87.94
2023-03-06T16:25:48.711Z,87.56
2023-03-06T16:28:17.289Z,88.13
2023-03-06T16:30:46.086Z,88.07
2023-03-06T16:33:14.589Z,88.83
2023-03-06T16:35:44.619Z,89.76
2023-03-06T17:03:27.809Z,94.13
2023-03-06T17:05:56.344Z,94.13
2023-03-06T17:08:24.417Z,96.74
2023-03-06T17:10:52.447Z,97.68
2023-03-06T17:13:21.214Z,96.92
2023-03-06T17:15:59.457Z,96.42
2023-03-06T17:18:29.383Z,99.06
2023-03-06T17:20:58.371Z,99.49
2023-03-06T17:23:28.969Z,100.00
2023-03-06T17:49:07.152Z,100.00
2023-03-06T17:51:36.070Z,100.00
2023-03-06T17:54:04.833Z,100.00
2023-03-06T17:56:33.433Z,100.00
2023-03-06T17:59:01.930Z,100.00
2023-03-06T18:01:30.774Z,100.00
2023-03-06T18:03:59.637Z,100.00
2023-03-06T18:06:30.381Z,100.00
2023-03-06T18:08:59.057Z,100.00
2023-03-06T18:31:53.380Z,100.00
2023-03-06T18:34:22.556Z,100.00
2023-03-06T18:36:53.007Z,100.00
2023-03-06T18:39:21.635Z,100.00
2023-03-06T18:41:49.941Z,100.00
2023-03-06T18:44:19.078Z,100.00
2023-03-06T18:46:49.181Z,100.00
2023-03-06T18:49:17.989Z,100.00
2023-03-06T18:51:48.415Z,100.00
2023-03-06T19:16:59.923Z,99.22
2023-03-06T19:19:29.509Z,99.22
2023-03-06T19:21:58.643Z,100.00
2023-03-06T19:24:27.257Z,100.00
2023-03-06T19:26:55.723Z,100.00
2023-03-06T19:29:23.882Z,100.00
2023-03-06T19:31:52.372Z,100.00
2023-03-06T19:34:20.738Z,100.00
2023-03-06T19:36:50.419Z,100.00
2023-03-06T19:57:20.901Z,100.00
2023-03-06T19:59:53.962Z,100.00
2023-03-06T20:02:26.653Z,100.00
2023-03-06T20:04:55.983Z,100.00
2023-03-06T20:07:24.457Z,100.00
2023-03-06T20:09:52.619Z,100.00
2023-03-06T20:12:21.016Z,100.00
2023-03-06T20:35:10.876Z,100.00
2023-03-06T20:37:41.287Z,100.00
2023-03-06T20:40:11.050Z,100.00
2023-03-06T20:42:39.579Z,100.00
2023-03-06T20:45:08.309Z,100.00
2023-03-06T20:47:36.656Z,100.00
2023-03-06T20:50:05.664Z,100.00
2023-03-06T21:13:17.241Z,100.00
2023-03-06T21:15:47.742Z,100.00
2023-03-06T21:18:15.683Z,100.00
2023-03-06T21:20:43.952Z,100.00
2023-03-06T21:23:12.506Z,100.00
2023-03-06T21:25:52.188Z,100.00
2023-03-06T21:49:03.615Z,100.00
2023-03-06T21:51:32.651Z,100.00
2023-03-06T21:54:00.549Z,100.00
2023-03-06T21:56:28.606Z,100.00
2023-03-06T21:58:58.293Z,100.00
2023-03-06T22:01:29.052Z,100.00
2023-03-06T22:03:58.596Z,100.00
2023-03-06T22:26:38.964Z,100.00
2023-03-06T22:29:07.544Z,100.00
2023-03-06T22:31:35.650Z,100.00
2023-03-06T22:34:03.475Z,100.00
2023-03-06T22:36:32.297Z,100.00
2023-03-06T22:39:02.911Z,100.00
2023-03-06T22:41:44.059Z,100.00
2023-03-06T23:04:55.744Z,100.00
2023-03-06T23:07:24.301Z,100.00
2023-03-06T23:10:01.483Z,100.00
2023-03-06T23:12:48.062Z,100.00
2023-03-06T23:15:35.732Z,100.00
2023-03-06T23:18:21.950Z,100.00
2023-03-06T23:44:21.109Z,100.00
2023-03-06T23:46:49.718Z,100.00
2023-03-06T23:49:17.507Z,100.00
2023-03-06T23:51:45.285Z,100.00
2023-03-06T23:54:14.144Z,100.00
2023-03-06T23:56:42.009Z,100.00
2023-03-06T23:59:11.540Z,100.00
